Time;durP1;ratioP1;P1;durP2;ratioP2;P2;SDS_P1;SDS_P2;PMS_P1;PMS_P2;Temp;Humidity;BMP_temperature;BMP_pressure;BME280_temperature;BME280_humidity;BME280_pressure;Samples;Min_cycle;Max_cycle;Signal;HPM_P1;HPM_P2
2023/01/21 00:00:14;;;;;;;13.20;5.70;;;;;;;;;;4925358;28;20489;-70
2023/01/21 00:02:40;;;;;;;11.97;5.67;;;;;;;;;;4925150;28;20039;-70
2023/01/21 00:05:06;;;;;;;15.07;5.10;;;;;;;;;;4938730;29;20031;-70
2023/01/21 00:07:31;;;;;;;18.53;5.07;;;;;;;;;;4955293;28;20055;-71
2023/01/21 00:09:57;;;;;;;10.10;4.83;;;;;;;;;;4925455;28;20039;-71
2023/01/21 00:12:24;;;;;;;11.30;4.37;;;;;;;;;;4938940;28;20027;-71
2023/01/21 00:14:50;;;;;;;11.57;5.00;;;;;;;;;;4921182;29;20046;-72
2023/01/21 00:17:19;;;;;;;9.97;4.53;;;;;;;;;;4936066;29;20535;-70
2023/01/21 00:19:45;;;;;;;15.43;4.43;;;;;;;;;;4939251;28;20042;-70
2023/01/21 00:22:11;;;;;;;12.10;4.53;;;;;;;;;;4920582;29;20065;-71
2023/01/21 00:24:37;;;;;;;13.57;4.40;;;;;;;;;;4922490;28;20522;-71
2023/01/21 00:27:03;;;;;;;11.37;4.27;;;;;;;;;;4923247;28;20050;-71
2023/01/21 00:29:28;;;;;;;12.10;4.37;;;;;;;;;;4924049;28;20038;-71
2023/01/21 00:31:54;;;;;;;9.83;3.90;;;;;;;;;;4922202;29;20409;-71
2023/01/21 00:34:19;;;;;;;9.40;3.80;;;;;;;;;;4934388;29;20035;-71
2023/01/21 00:36:45;;;;;;;11.23;3.80;;;;;;;;;;4937167;29;20130;-71
2023/01/21 00:39:11;;;;;;;11.20;4.13;;;;;;;;;;4921161;29;20450;-71
2023/01/21 00:41:38;;;;;;;12.00;4.47;;;;;;;;;;4939444;28;20477;-71
2023/01/21 00:44:04;;;;;;;7.90;3.93;;;;;;;;;;4924199;28;20039;-71
2023/01/21 00:46:30;;;;;;;17.50;3.60;;;;;;;;;;4924177;28;20047;-70
2023/01/21 00:48:55;;;;;;;14.40;4.10;;;;;;;;;;4919959;28;20631;-70
2023/01/21 00:51:22;;;;;;;16.30;4.37;;;;;;;;;;4933463;28;20071;-70
2023/01/21 00:53:48;;;;;;;13.43;3.57;;;;;;;;;;4935327;29;20172;-69
2023/01/21 00:56:13;;;;;;;6.87;3.33;;;;;;;;;;4932766;29;20039;-70
2023/01/21 00:58:39;;;;;;;12.10;3.80;;;;;;;;;;4939815;28;20070;-70
2023/01/21 01:01:06;;;;;;;8.87;3.50;;;;;;;;;;4941276;28;20116;-70
2023/01/21 01:03:32;;;;;;;10.50;4.00;;;;;;;;;;4925841;28;20041;-71
2023/01/21 01:06:05;;;;;;;8.70;3.83;;;;;;;;;;4926308;28;20093;-71
2023/01/21 01:08:31;;;;;;;6.97;3.47;;;;;;;;;;4939985;28;20093;-71
2023/01/21 01:10:57;;;;;;;9.10;3.70;;;;;;;;;;4921329;29;20035;-70
2023/01/21 01:13:22;;;;;;;10.07;3.60;;;;;;;;;;4934049;28;20035;-70
2023/01/21 01:15:51;;;;;;;10.93;3.53;;;;;;;;;;4920797;29;20049;-70
2023/01/21 01:18:17;;;;;;;14.33;3.83;;;;;;;;;;4932869;29;20039;-70
2023/01/21 01:20:43;;;;;;;9.90;3.80;;;;;;;;;;4955529;28;20109;-70
2023/01/21 01:23:08;;;;;;;8.03;3.27;;;;;;;;;;4939682;28;20042;-71
2023/01/21 01:25:36;;;;;;;13.27;3.80;;;;;;;;;;4922413;28;20498;-70
2023/01/21 01:28:03;;;;;;;13.20;3.67;;;;;;;;;;4920577;29;20097;-71
2023/01/21 01:30:28;;;;;;;12.03;3.77;;;;;;;;;;4953950;28;20042;-70
2023/01/21 01:32:54;;;;;;;12.90;3.20;;;;;;;;;;4924778;28;20035;-70
2023/01/21 01:35:20;;;;;;;12.00;3.80;;;;;;;;;;4939895;28;20105;-71
2023/01/21 01:37:45;;;;;;;13.07;3.70;;;;;;;;;;4923813;28;20386;-71
2023/01/21 01:40:11;;;;;;;12.07;3.73;;;;;;;;;;4920352;29;20489;-70
2023/01/21 01:42:38;;;;;;;12.10;3.13;;;;;;;;;;4935377;29;20637;-70
2023/01/21 01:45:04;;;;;;;11.37;3.30;;;;;;;;;;4925460;29;20134;-70
2023/01/21 01:47:36;;;;;;;9.50;3.73;;;;;;;;;;4921475;28;20048;-71
2023/01/21 01:50:04;;;;;;;10.10;3.70;;;;;;;;;;4936347;29;20027;-70
2023/01/21 01:52:30;;;;;;;11.33;3.40;;;;;;;;;;4950386;29;20054;-70
2023/01/21 01:54:59;;;;;;;10.70;4.57;;;;;;;;;;4914075;29;20035;-70
2023/01/21 01:57:28;;;;;;;13.87;3.77;;;;;;;;;;4925803;29;20039;-70
2023/01/21 01:59:53;;;;;;;8.47;4.10;;;;;;;;;;4913409;29;20062;-70
2023/01/21 02:02:19;;;;;;;13.17;3.70;;;;;;;;;;4937476;29;20031;-70
2023/01/21 02:04:48;;;;;;;13.47;4.30;;;;;;;;;;4939353;29;20039;-72
2023/01/21 02:07:14;;;;;;;9.57;3.60;;;;;;;;;;4955561;29;20058;-70
2023/01/21 02:09:40;;;;;;;11.80;3.40;;;;;;;;;;4939780;29;20039;-70
2023/01/21 02:12:06;;;;;;;12.10;3.50;;;;;;;;;;4918647;29;20031;-71
2023/01/21 02:14:35;;;;;;;10.57;4.03;;;;;;;;;;4942820;28;20195;-70
2023/01/21 02:17:41;;;;;;;8.32;3.30;;;;;;;;;;4942717;28;20043;-70
2023/01/21 02:20:18;;;;;;;10.57;3.43;;;;;;;;;;4923644;29;20036;-71
2023/01/21 02:22:51;;;;;;;10.43;3.97;;;;;;;;;;4939402;29;20474;-68
2023/01/21 02:25:33;;;;;;;10.03;3.23;;;;;;;;;;4955776;29;20043;-68
2023/01/21 02:27:58;;;;;;;;;;;;;;;;;;4927641;28;20061;-68
2023/01/21 02:30:40;;;;;;;15.03;3.30;;;;;;;;;;4924985;28;19911;-69
2023/01/21 02:33:25;;;;;;;10.25;3.35;;;;;;;;;;4942485;28;20069;-70
2023/01/21 02:35:57;;;;;;;10.00;3.10;;;;;;;;;;4923864;29;20039;-71
2023/01/21 02:38:31;;;;;;;11.37;3.57;;;;;;;;;;4926290;28;20031;-68
2023/01/21 02:41:14;;;;;;;10.60;3.20;;;;;;;;;;4923353;29;20035;-68
2023/01/21 02:43:48;;;;;;;14.87;3.37;;;;;;;;;;4957076;28;20065;-67
2023/01/21 02:46:21;;;;;;;10.70;3.13;;;;;;;;;;4925511;28;20669;-67
2023/01/21 02:48:59;;;;;;;10.83;3.23;;;;;;;;;;4942215;28;20137;-66
2023/01/21 02:51:24;;;;;;;7.90;3.60;;;;;;;;;;4923999;28;20059;-67
2023/01/21 02:53:57;;;;;;;9.30;2.80;;;;;;;;;;4923321;28;20382;-66
2023/01/21 02:56:26;;;;;;;12.37;3.10;;;;;;;;;;4953476;28;20070;-69
2023/01/21 02:59:00;;;;;;;10.90;2.97;;;;;;;;;;4922778;29;20554;-67
2023/01/21 03:01:34;;;;;;;9.00;2.50;;;;;;;;;;4936567;29;20047;-68
2023/01/21 03:04:03;;;;;;;6.20;2.87;;;;;;;;;;4916850;29;20044;-68
2023/01/21 03:06:32;;;;;;;16.63;3.07;;;;;;;;;;4928775;29;20105;-68
2023/01/21 03:09:00;;;;;;;8.37;3.07;;;;;;;;;;4916969;29;20146;-68
2023/01/21 03:11:27;;;;;;;9.87;3.07;;;;;;;;;;4928573;29;20044;-67
2023/01/21 03:16:57;;;;;;;7.63;3.07;;;;;;;;;;4941394;28;20073;-69
2023/01/21 03:19:26;;;;;;;6.93;3.23;;;;;;;;;;4925189;28;20061;-68
2023/01/21 03:21:52;;;;;;;7.67;2.60;;;;;;;;;;4937699;29;20150;-68
2023/01/21 03:24:18;;;;;;;13.87;2.73;;;;;;;;;;4933286;29;20035;-68
2023/01/21 03:26:46;;;;;;;5.67;2.67;;;;;;;;;;4940523;28;20054;-67
2023/01/21 03:29:17;;;;;;;10.60;2.70;;;;;;;;;;4940768;28;20055;-67
2023/01/21 03:31:45;;;;;;;14.13;3.03;;;;;;;;;;4922367;29;20411;-68
2023/01/21 03:34:12;;;;;;;9.80;3.40;;;;;;;;;;4933731;29;20496;-68
2023/01/21 03:36:59;;;;;;;6.60;3.23;;;;;;;;;;4940742;28;20046;-69
2023/01/21 03:39:45;;;;;;;10.57;3.10;;;;;;;;;;4926550;28;20142;-68
2023/01/21 03:42:12;;;;;;;5.07;3.07;;;;;;;;;;4925215;28;20567;-68
2023/01/21 03:44:38;;;;;;;11.40;2.90;;;;;;;;;;4957080;28;20676;-68
2023/01/21 03:47:09;;;;;;;6.23;2.67;;;;;;;;;;4921977;29;20043;-68
2023/01/21 03:49:55;;;;;;;10.47;2.97;;;;;;;;;;4952693;29;20043;-68
2023/01/21 03:52:21;;;;;;;11.83;2.67;;;;;;;;;;4918880;28;20466;-68
2023/01/21 03:54:48;;;;;;;8.90;2.50;;;;;;;;;;4941007;28;20124;-67
2023/01/21 03:57:13;;;;;;;9.50;3.00;;;;;;;;;;4924962;28;20035;-68
2023/01/21 03:59:39;;;;;;;6.60;2.47;;;;;;;;;;4940668;28;20128;-68
2023/01/21 04:02:04;;;;;;;12.43;3.10;;;;;;;;;;4956821;28;20491;-68
2023/01/21 04:04:30;;;;;;;8.93;2.93;;;;;;;;;;4922992;28;20477;-67
2023/01/21 04:06:55;;;;;;;11.90;3.27;;;;;;;;;;4921841;29;20046;-67
2023/01/21 04:09:21;;;;;;;10.20;3.20;;;;;;;;;;4934867;28;20045;-68
2023/01/21 04:11:47;;;;;;;4.80;2.40;;;;;;;;;;4921558;29;20031;-67
2023/01/21 04:14:12;;;;;;;6.33;2.90;;;;;;;;;;4933446;29;20077;-68
2023/01/21 04:16:38;;;;;;;8.57;2.80;;;;;;;;;;4937739;29;20038;-67
2023/01/21 04:19:04;;;;;;;9.77;3.17;;;;;;;;;;4916927;29;20039;-68
2023/01/21 04:21:29;;;;;;;9.27;3.17;;;;;;;;;;4927479;29;20027;-68
2023/01/21 04:23:55;;;;;;;7.00;2.60;;;;;;;;;;4914531;28;20097;-68
2023/01/21 04:26:21;;;;;;;7.93;2.87;;;;;;;;;;4936881;28;20105;-67
2023/01/21 04:28:47;;;;;;;7.13;2.80;;;;;;;;;;4924608;28;20043;-68
2023/01/21 04:31:13;;;;;;;7.80;2.67;;;;;;;;;;4921229;29;20442;-67
2023/01/21 04:33:38;;;;;;;7.33;2.60;;;;;;;;;;4938802;28;20683;-67
2023/01/21 04:36:04;;;;;;;12.23;3.30;;;;;;;;;;4936997;29;20043;-68
2023/01/21 04:38:30;;;;;;;13.30;3.40;;;;;;;;;;4935573;28;20493;-67
2023/01/21 04:40:55;;;;;;;6.80;3.10;;;;;;;;;;4921480;29;20035;-67
2023/01/21 04:43:21;;;;;;;9.30;2.83;;;;;;;;;;4936946;28;20042;-68
2023/01/21 04:45:46;;;;;;;6.27;2.73;;;;;;;;;;4921022;29;20035;-67
2023/01/21 04:48:12;;;;;;;9.27;3.00;;;;;;;;;;4923870;28;20049;-67
2023/01/21 04:50:38;;;;;;;9.27;3.47;;;;;;;;;;4923308;28;20386;-67
2023/01/21 04:53:04;;;;;;;8.37;3.50;;;;;;;;;;4936580;29;20057;-67
2023/01/21 04:55:30;;;;;;;15.67;3.60;;;;;;;;;;4938221;28;20133;-68
2023/01/21 04:57:55;;;;;;;13.33;4.00;;;;;;;;;;4924388;28;20097;-68
2023/01/21 05:00:21;;;;;;;16.80;4.50;;;;;;;;;;4936739;28;20105;-68
2023/01/21 05:02:47;;;;;;;21.17;5.13;;;;;;;;;;4939511;28;20038;-68
2023/01/21 05:05:13;;;;;;;13.70;5.17;;;;;;;;;;4939614;28;20492;-67
2023/01/21 05:07:39;;;;;;;16.87;4.50;;;;;;;;;;4923744;28;20042;-68
2023/01/21 05:10:05;;;;;;;16.60;4.63;;;;;;;;;;4940010;28;20042;-68
2023/01/21 05:12:33;;;;;;;16.50;4.70;;;;;;;;;;4924644;28;20485;-67
2023/01/21 05:14:58;;;;;;;18.10;4.50;;;;;;;;;;4924999;28;20385;-68
2023/01/21 05:17:24;;;;;;;21.90;5.87;;;;;;;;;;4924760;28;20034;-69
2023/01/21 05:19:50;;;;;;;12.27;5.03;;;;;;;;;;4940706;28;20039;-69
2023/01/21 05:22:16;;;;;;;15.57;5.60;;;;;;;;;;4924695;28;20034;-68
2023/01/21 05:24:41;;;;;;;12.60;4.90;;;;;;;;;;4925024;28;20097;-68
2023/01/21 05:27:07;;;;;;;14.73;4.83;;;;;;;;;;4924623;28;20038;-69
2023/01/21 05:29:33;;;;;;;12.80;4.67;;;;;;;;;;4940405;28;20046;-68
2023/01/21 05:31:59;;;;;;;14.73;5.20;;;;;;;;;;4924791;28;20039;-69
2023/01/21 05:34:24;;;;;;;15.30;4.37;;;;;;;;;;4924667;28;20030;-68
2023/01/21 05:36:50;;;;;;;14.57;5.43;;;;;;;;;;4924127;28;20035;-69
2023/01/21 05:39:17;;;;;;;16.53;5.50;;;;;;;;;;4939950;28;20042;-70
2023/01/21 05:41:42;;;;;;;14.67;5.33;;;;;;;;;;4925029;28;20039;-70
2023/01/21 05:44:08;;;;;;;10.97;5.33;;;;;;;;;;4940290;28;20042;-68
2023/01/21 05:46:34;;;;;;;18.23;5.57;;;;;;;;;;4940018;28;20047;-69
2023/01/21 05:49:00;;;;;;;14.93;5.57;;;;;;;;;;4940722;28;20105;-69
2023/01/21 05:51:26;;;;;;;9.87;4.20;;;;;;;;;;4924292;28;20501;-68
2023/01/21 05:53:51;;;;;;;8.70;3.83;;;;;;;;;;4940170;28;20285;-69
2023/01/21 05:56:19;;;;;;;9.43;4.13;;;;;;;;;;4924158;28;20125;-69
2023/01/21 05:58:45;;;;;;;16.10;4.20;;;;;;;;;;4939682;28;20113;-69
2023/01/21 06:01:10;;;;;;;9.07;3.80;;;;;;;;;;4917857;29;20506;-68
2023/01/21 06:03:36;;;;;;;13.07;4.30;;;;;;;;;;4937268;28;20094;-70
2023/01/21 06:06:02;;;;;;;10.13;3.87;;;;;;;;;;4940214;28;20500;-70
2023/01/21 06:08:28;;;;;;;11.60;4.00;;;;;;;;;;4922265;28;20043;-70
2023/01/21 06:10:55;;;;;;;7.57;3.90;;;;;;;;;;4920588;29;20457;-70
2023/01/21 06:13:21;;;;;;;10.50;4.27;;;;;;;;;;4933328;28;20374;-70
2023/01/21 06:15:49;;;;;;;10.70;4.50;;;;;;;;;;4940013;28;20094;-70
2023/01/21 06:18:14;;;;;;;9.10;3.83;;;;;;;;;;4940129;28;20385;-68
2023/01/21 06:20:40;;;;;;;10.23;4.57;;;;;;;;;;4922009;28;20043;-69
2023/01/21 06:23:06;;;;;;;7.63;3.80;;;;;;;;;;4930373;29;20374;-68
2023/01/21 06:25:34;;;;;;;9.70;4.07;;;;;;;;;;4953187;28;20114;-68
2023/01/21 06:28:01;;;;;;;7.67;3.80;;;;;;;;;;4940605;28;20090;-69
2023/01/21 06:30:28;;;;;;;7.20;3.83;;;;;;;;;;4921586;28;20028;-68
2023/01/21 06:32:53;;;;;;;7.80;3.63;;;;;;;;;;4920701;29;20500;-67
2023/01/21 06:35:21;;;;;;;11.57;4.00;;;;;;;;;;4923870;28;20045;-68
2023/01/21 06:37:48;;;;;;;9.20;3.80;;;;;;;;;;4939409;28;20045;-68
2023/01/21 06:40:14;;;;;;;6.60;3.60;;;;;;;;;;4921517;28;20573;-69
2023/01/21 06:42:40;;;;;;;7.07;3.20;;;;;;;;;;4920532;28;20422;-68
2023/01/21 06:45:06;;;;;;;9.70;4.20;;;;;;;;;;4943885;28;20030;-69
2023/01/21 06:47:31;;;;;;;7.17;4.17;;;;;;;;;;4936830;28;20039;-69
2023/01/21 06:49:57;;;;;;;9.80;3.57;;;;;;;;;;4919412;28;20097;-69
2023/01/21 06:52:23;;;;;;;5.60;3.37;;;;;;;;;;4937394;28;20454;-68
2023/01/21 06:54:49;;;;;;;6.97;3.53;;;;;;;;;;4917753;28;20042;-68
2023/01/21 06:57:14;;;;;;;5.40;3.20;;;;;;;;;;4937885;28;20042;-68
2023/01/21 06:59:40;;;;;;;5.43;3.10;;;;;;;;;;4925403;28;20066;-69
2023/01/21 07:02:09;;;;;;;10.30;2.77;;;;;;;;;;4926306;28;20047;-69
2023/01/21 07:04:34;;;;;;;7.80;2.93;;;;;;;;;;4921511;28;20443;-69
2023/01/21 07:07:00;;;;;;;8.13;3.37;;;;;;;;;;4941715;28;20077;-68
2023/01/21 07:09:26;;;;;;;7.07;3.33;;;;;;;;;;4949110;28;20035;-69
2023/01/21 07:11:51;;;;;;;9.87;3.73;;;;;;;;;;4941813;28;20063;-69
2023/01/21 07:14:17;;;;;;;9.17;3.63;;;;;;;;;;4949426;28;20465;-69
2023/01/21 07:16:42;;;;;;;6.50;3.67;;;;;;;;;;4941408;28;20034;-69
2023/01/21 07:19:08;;;;;;;8.43;3.20;;;;;;;;;;4949247;28;20540;-69
2023/01/21 07:21:34;;;;;;;7.60;3.30;;;;;;;;;;4941425;28;20034;-69
2023/01/21 07:23:59;;;;;;;11.23;4.00;;;;;;;;;;4921213;28;20027;-68
2023/01/21 07:26:25;;;;;;;5.23;3.33;;;;;;;;;;4936531;28;20500;-67
2023/01/21 07:28:51;;;;;;;9.63;3.50;;;;;;;;;;4921088;28;20431;-68
2023/01/21 07:31:16;;;;;;;10.17;3.00;;;;;;;;;;4941218;29;20398;-69
2023/01/21 07:33:42;;;;;;;5.27;3.03;;;;;;;;;;4920482;28;20035;-68
2023/01/21 07:36:08;;;;;;;7.37;3.27;;;;;;;;;;4941026;28;20377;-69
2023/01/21 07:38:33;;;;;;;8.17;3.70;;;;;;;;;;4931978;28;20043;-71
2023/01/21 07:40:59;;;;;;;5.40;3.20;;;;;;;;;;4925244;28;20074;-69
2023/01/21 07:43:26;;;;;;;9.13;4.33;;;;;;;;;;4938111;28;20124;-68
2023/01/21 07:45:52;;;;;;;5.87;3.33;;;;;;;;;;4930909;29;20031;-69
2023/01/21 07:48:18;;;;;;;6.27;3.43;;;;;;;;;;4919329;28;20031;-69
2023/01/21 07:50:44;;;;;;;5.10;3.30;;;;;;;;;;4940646;28;20042;-69
2023/01/21 07:53:10;;;;;;;7.43;4.17;;;;;;;;;;4948661;28;20125;-67
2023/01/21 07:55:36;;;;;;;6.37;3.33;;;;;;;;;;4924105;28;20455;-67
2023/01/21 07:58:02;;;;;;;4.13;3.33;;;;;;;;;;4920680;28;20061;-67
2023/01/21 08:00:29;;;;;;;5.30;2.77;;;;;;;;;;4936072;28;20047;-68
2023/01/21 08:02:56;;;;;;;5.57;3.10;;;;;;;;;;4940522;28;20042;-68
2023/01/21 08:05:22;;;;;;;8.77;3.40;;;;;;;;;;4921611;29;20050;-68
2023/01/21 08:07:48;;;;;;;7.10;2.90;;;;;;;;;;4914163;29;20050;-68
2023/01/21 08:10:14;;;;;;;7.90;3.10;;;;;;;;;;4937480;29;20035;-68
2023/01/21 08:12:40;;;;;;;9.97;3.53;;;;;;;;;;4923727;28;20131;-67
2023/01/21 08:15:07;;;;;;;6.53;3.37;;;;;;;;;;4940558;28;20061;-68
2023/01/21 08:17:32;;;;;;;5.07;3.37;;;;;;;;;;4920405;28;20027;-69
2023/01/21 08:19:58;;;;;;;5.33;2.80;;;;;;;;;;4920246;28;20480;-68
2023/01/21 08:22:24;;;;;;;6.90;3.50;;;;;;;;;;4935748;28;20034;-68
2023/01/21 08:24:50;;;;;;;8.13;2.87;;;;;;;;;;4948291;28;20069;-68
2023/01/21 08:27:16;;;;;;;6.57;3.17;;;;;;;;;;4940151;28;20093;-68
2023/01/21 08:29:41;;;;;;;6.33;3.00;;;;;;;;;;4919994;28;20031;-67
2023/01/21 08:32:07;;;;;;;6.10;3.43;;;;;;;;;;4936895;29;20102;-69
2023/01/21 08:34:33;;;;;;;6.27;3.00;;;;;;;;;;4938898;28;20035;-69
2023/01/21 08:36:58;;;;;;;9.07;3.00;;;;;;;;;;4940312;28;20117;-69
2023/01/21 08:39:24;;;;;;;10.77;3.87;;;;;;;;;;4924291;28;20031;-69
2023/01/21 08:41:50;;;;;;;8.50;3.97;;;;;;;;;;4932273;29;20085;-68
2023/01/21 08:44:15;;;;;;;8.40;3.40;;;;;;;;;;4922560;28;20035;-67
2023/01/21 08:46:45;;;;;;;9.47;3.70;;;;;;;;;;4935628;28;20073;-68
2023/01/21 08:49:10;;;;;;;10.30;3.20;;;;;;;;;;4955514;28;20492;-68
2023/01/21 08:51:36;;;;;;;7.30;3.53;;;;;;;;;;4931143;29;20043;-68
2023/01/21 08:54:05;;;;;;;9.40;2.93;;;;;;;;;;4954080;28;20069;-69
2023/01/21 08:56:31;;;;;;;10.87;3.30;;;;;;;;;;4906588;29;20488;-69
2023/01/21 08:58:57;;;;;;;5.03;3.00;;;;;;;;;;4937754;29;20047;-69
2023/01/21 09:01:24;;;;;;;6.20;3.33;;;;;;;;;;4937799;29;20034;-68
2023/01/21 09:03:57;;;;;;;5.93;2.83;;;;;;;;;;4938024;29;20409;-68
2023/01/21 09:06:23;;;;;;;7.30;3.47;;;;;;;;;;4934782;29;20142;-68
2023/01/21 09:08:49;;;;;;;9.53;3.37;;;;;;;;;;4938032;29;20035;-68
2023/01/21 09:11:15;;;;;;;8.30;3.00;;;;;;;;;;4905538;29;20039;-67
2023/01/21 09:13:43;;;;;;;9.77;3.63;;;;;;;;;;4937927;29;20512;-69
2023/01/21 09:16:13;;;;;;;10.40;3.40;;;;;;;;;;4937626;29;20089;-69
2023/01/21 09:18:39;;;;;;;9.88;3.30;;;;;;;;;;4936818;29;20032;-69
2023/01/21 09:21:05;;;;;;;9.67;3.53;;;;;;;;;;4937423;29;20138;-70
2023/01/21 09:23:33;;;;;;;9.03;3.40;;;;;;;;;;4935947;29;20639;-69
2023/01/21 09:26:17;;;;;;;8.60;3.17;;;;;;;;;;4953367;28;20035;-69
2023/01/21 09:28:44;;;;;;;9.00;3.77;;;;;;;;;;4937417;29;20206;-68
2023/01/21 09:31:13;;;;;;;7.87;3.70;;;;;;;;;;4937584;29;20541;-69
2023/01/21 09:33:40;;;;;;;8.87;3.20;;;;;;;;;;4937382;29;20039;-68
2023/01/21 09:36:06;;;;;;;12.93;4.00;;;;;;;;;;4937285;29;20035;-69
2023/01/21 09:38:32;;;;;;;8.07;3.60;;;;;;;;;;4937717;29;20043;-68
2023/01/21 09:41:03;;;;;;;8.67;3.40;;;;;;;;;;4936910;29;20031;-68
2023/01/21 09:43:34;;;;;;;20.83;3.63;;;;;;;;;;4936994;29;20043;-68
2023/01/21 09:46:02;;;;;;;8.25;3.17;;;;;;;;;;4951294;29;20063;-68
2023/01/21 09:48:36;;;;;;;9.80;3.70;;;;;;;;;;4920172;29;20066;-69
2023/01/21 09:51:05;;;;;;;13.43;3.73;;;;;;;;;;4937071;29;20043;-68
2023/01/21 09:53:36;;;;;;;14.57;3.60;;;;;;;;;;4933217;29;20050;-68
2023/01/21 09:56:01;;;;;;;;;;;;;;;;;;4937528;29;20046;-68
2023/01/21 09:58:42;;;;;;;8.50;3.57;;;;;;;;;;4937106;29;19914;-68
2023/01/21 10:01:20;;;;;;;9.23;2.97;;;;;;;;;;4952991;29;20047;-68
2023/01/21 10:03:45;;;;;;;6.83;2.90;;;;;;;;;;4936899;29;20061;-68
2023/01/21 10:06:18;;;;;;;8.80;2.87;;;;;;;;;;4936744;29;20486;-68
2023/01/21 10:09:07;;;;;;;4.73;2.87;;;;;;;;;;4936856;29;20031;-68
2023/01/21 10:11:51;;;;;;;8.50;2.97;;;;;;;;;;4888216;29;20062;-68
2023/01/21 10:14:20;;;;;;;8.23;3.30;;;;;;;;;;4936732;29;20557;-73
2023/01/21 10:16:55;;;;;;;11.53;3.30;;;;;;;;;;4934580;29;20036;-68
2023/01/21 10:19:23;;;;;;;4.53;2.30;;;;;;;;;;4935076;29;20475;-68
2023/01/21 10:21:52;;;;;;;8.17;2.70;;;;;;;;;;4938075;28;20130;-68
2023/01/21 10:24:26;;;;;;;8.87;2.93;;;;;;;;;;4941096;29;20138;-68
2023/01/21 10:26:52;;;;;;;5.87;2.67;;;;;;;;;;4942115;29;20069;-68
2023/01/21 10:29:20;;;;;;;5.17;2.60;;;;;;;;;;4942030;29;20039;-68
2023/01/21 10:31:50;;;;;;;6.97;2.57;;;;;;;;;;4941678;29;20441;-68
2023/01/21 10:34:21;;;;;;;4.20;2.77;;;;;;;;;;4941201;29;20039;-68
2023/01/21 10:37:00;;;;;;;4.77;2.70;;;;;;;;;;4937024;29;20462;-68
2023/01/21 10:39:28;;;;;;;8.77;3.00;;;;;;;;;;4937728;29;20067;-68
2023/01/21 10:41:54;;;;;;;5.07;2.90;;;;;;;;;;4940529;29;20043;-68
2023/01/21 10:44:29;;;;;;;8.20;2.90;;;;;;;;;;4940176;29;20101;-68
2023/01/21 10:47:00;;;;;;;6.37;2.93;;;;;;;;;;4939950;29;20494;-68
2023/01/21 10:49:32;;;;;;;6.43;2.90;;;;;;;;;;4939897;29;20462;-68
2023/01/21 10:52:02;;;;;;;13.60;3.17;;;;;;;;;;4939944;29;20620;-68
2023/01/21 10:54:33;;;;;;;9.00;2.87;;;;;;;;;;4939674;29;20039;-68
2023/01/21 10:57:10;;;;;;;8.73;3.40;;;;;;;;;;4940009;29;20042;-68
2023/01/21 10:59:37;;;;;;;5.97;2.50;;;;;;;;;;4939959;29;20086;-69
2023/01/21 11:02:11;;;;;;;8.47;3.30;;;;;;;;;;4939728;29;20035;-69
2023/01/21 11:04:39;;;;;;;5.40;2.60;;;;;;;;;;4940063;29;20473;-68
2023/01/21 11:07:06;;;;;;;14.73;2.93;;;;;;;;;;4922322;29;20043;-69
2023/01/21 11:09:35;;;;;;;5.33;2.60;;;;;;;;;;4937929;29;20583;-68
2023/01/21 11:12:01;;;;;;;6.00;2.43;;;;;;;;;;4938207;29;20054;-68
2023/01/21 11:14:28;;;;;;;6.40;2.87;;;;;;;;;;4938228;29;20040;-68
2023/01/21 11:16:54;;;;;;;5.93;2.60;;;;;;;;;;4942059;28;20133;-68
2023/01/21 11:19:24;;;;;;;2.47;2.10;;;;;;;;;;4927180;28;20441;-68
2023/01/21 11:22:09;;;;;;;5.55;2.42;;;;;;;;;;4959166;28;20053;-68
2023/01/21 11:24:45;;;;;;;10.90;2.33;;;;;;;;;;4926979;28;20393;-69
2023/01/21 11:27:22;;;;;;;17.73;2.93;;;;;;;;;;4927114;28;20568;-69
2023/01/21 11:29:48;;;;;;;9.07;2.27;;;;;;;;;;4926892;28;20035;-69
2023/01/21 11:32:19;;;;;;;6.07;2.20;;;;;;;;;;4927033;28;20039;-68
2023/01/21 11:34:46;;;;;;;5.22;2.15;;;;;;;;;;4942183;28;20031;-68
2023/01/21 11:37:20;;;;;;;8.40;2.30;;;;;;;;;;4927315;28;20042;-69
2023/01/21 11:40:07;;;;;;;14.63;3.00;;;;;;;;;;4942808;28;20053;-69
2023/01/21 11:42:44;;;;;;;4.67;2.20;;;;;;;;;;4926629;28;20050;-69
2023/01/21 11:45:25;;;;;;;9.60;2.80;;;;;;;;;;4927101;28;20038;-69
2023/01/21 11:47:51;;;;;;;6.40;2.53;;;;;;;;;;4942463;28;20129;-68
2023/01/21 11:50:29;;;;;;;4.37;2.43;;;;;;;;;;4926631;28;20035;-68
2023/01/21 11:53:16;;;;;;;6.77;2.77;;;;;;;;;;4926427;28;20488;-68
2023/01/21 11:55:55;;;;;;;10.57;2.90;;;;;;;;;;4942498;28;20089;-69
2023/01/21 11:58:27;;;;;;;10.50;4.37;;;;;;;;;;4941934;28;20085;-69
2023/01/21 12:00:54;;;;;;;8.40;2.53;;;;;;;;;;4941925;28;20054;-69
2023/01/21 12:03:21;;;;;;;10.07;2.90;;;;;;;;;;4957922;28;20034;-68
2023/01/21 12:05:48;;;;;;;5.93;2.30;;;;;;;;;;4926106;28;20114;-68
2023/01/21 12:08:22;;;;;;;5.93;2.53;;;;;;;;;;4926277;28;20105;-69
2023/01/21 12:10:49;;;;;;;5.63;2.20;;;;;;;;;;4942097;28;20477;-69
2023/01/21 12:13:30;;;;;;;2.97;2.17;;;;;;;;;;4926066;28;20495;-69
2023/01/21 12:15:55;;;;;;;;;;;;;;;;;;4926661;28;20038;-69
2023/01/21 12:18:27;;;;;;;5.77;2.47;;;;;;;;;;4941922;28;19914;-68
2023/01/21 12:21:15;;;;;;;4.67;2.80;;;;;;;;;;4925757;28;20045;-68
2023/01/21 12:24:06;;;;;;;5.50;2.47;;;;;;;;;;4941842;28;20035;-69
2023/01/21 12:26:35;;;;;;;5.97;2.37;;;;;;;;;;4941732;28;20054;-69
2023/01/21 12:29:19;;;;;;;7.13;2.60;;;;;;;;;;4941531;28;20070;-68
2023/01/21 12:31:50;;;;;;;7.03;3.37;;;;;;;;;;4926076;28;20058;-68
2023/01/21 12:34:35;;;;;;;8.63;2.80;;;;;;;;;;4941580;28;20093;-68
2023/01/21 12:37:09;;;;;;;5.63;3.03;;;;;;;;;;4941191;28;20101;-68
2023/01/21 12:39:36;;;;;;;12.97;5.80;;;;;;;;;;4925641;28;20047;-68
2023/01/21 12:42:21;;;;;;;7.70;3.47;;;;;;;;;;4925356;28;20027;-68
2023/01/21 12:44:48;;;;;;;9.43;3.53;;;;;;;;;;4924864;28;20109;-69
2023/01/21 12:47:17;;;;;;;10.80;3.33;;;;;;;;;;4940776;28;20047;-70
2023/01/21 12:49:43;;;;;;;8.10;3.17;;;;;;;;;;4924945;28;20117;-70
2023/01/21 12:52:28;;;;;;;5.80;2.43;;;;;;;;;;4925493;28;20462;-69
2023/01/21 12:55:01;;;;;;;7.90;3.03;;;;;;;;;;4925464;28;20500;-70
2023/01/21 12:57:55;;;;;;;6.30;3.23;;;;;;;;;;4926915;28;20121;-70
2023/01/21 13:00:40;;;;;;;4.13;1.90;;;;;;;;;;4921866;28;20489;-70
2023/01/21 13:03:11;;;;;;;9.03;2.03;;;;;;;;;;4925712;28;20035;-69
2023/01/21 13:05:42;;;;;;;11.27;2.30;;;;;;;;;;4926213;28;20039;-67
2023/01/21 13:08:26;;;;;;;4.20;2.23;;;;;;;;;;4943121;28;20046;-68
2023/01/21 13:14:12;;;;;;;4.77;2.40;;;;;;;;;;4938456;28;20053;-68
2023/01/21 13:16:50;;;;;;;3.53;2.28;;;;;;;;;;4925199;28;20039;-69
2023/01/21 13:19:44;;;;;;;2.63;2.10;;;;;;;;;;4960507;28;20061;-68
2023/01/21 13:22:33;;;;;;;6.33;2.07;;;;;;;;;;4939977;28;20117;-68
2023/01/21 13:25:33;;;;;;;9.17;3.07;;;;;;;;;;4956326;28;20755;-69
2023/01/21 13:28:20;;;;;;;7.80;2.37;;;;;;;;;;4906456;28;20050;-68
2023/01/21 13:31:12;;;;;;;5.30;2.07;;;;;;;;;;4946122;28;20124;-69
2023/01/21 13:34:05;;;;;;;5.33;2.63;;;;;;;;;;4937734;28;20401;-69
2023/01/21 13:36:52;;;;;;;6.37;2.33;;;;;;;;;;4938334;28;20039;-69
2023/01/21 13:39:27;;;;;;;4.37;2.20;;;;;;;;;;4923592;28;20030;-69
2023/01/21 13:41:58;;;;;;;3.40;2.20;;;;;;;;;;4923409;28;20473;-69
2023/01/21 13:44:24;;;;;;;7.97;2.30;;;;;;;;;;4953713;28;20053;-69
2023/01/21 13:46:59;;;;;;;3.53;2.00;;;;;;;;;;4938882;28;20560;-69
2023/01/21 13:49:44;;;;;;;5.90;2.20;;;;;;;;;;4921667;28;20049;-69
2023/01/21 13:52:20;;;;;;;7.17;2.07;;;;;;;;;;4938948;28;20039;-69
2023/01/21 13:54:55;;;;;;;3.87;2.30;;;;;;;;;;4923607;28;20061;-69
2023/01/21 13:57:41;;;;;;;8.13;2.33;;;;;;;;;;4937069;28;20085;-69
2023/01/21 14:00:11;;;;;;;6.73;2.40;;;;;;;;;;4903562;29;20051;-70
2023/01/21 14:02:50;;;;;;;3.67;2.03;;;;;;;;;;4949562;29;20034;-69
2023/01/21 14:05:19;;;;;;;6.70;2.10;;;;;;;;;;4920820;29;20101;-70
2023/01/21 14:07:56;;;;;;;9.40;2.30;;;;;;;;;;4904323;29;20054;-69
2023/01/21 14:10:21;;;;;;;4.53;2.40;;;;;;;;;;4935552;29;20032;-69
2023/01/21 14:13:07;;;;;;;5.83;2.43;;;;;;;;;;4920511;29;20050;-70
2023/01/21 14:15:39;;;;;;;4.60;2.13;;;;;;;;;;4903427;29;20054;-69
2023/01/21 14:18:28;;;;;;;8.17;2.43;;;;;;;;;;4904462;29;20359;-69
2023/01/21 14:21:05;;;;;;;6.27;2.10;;;;;;;;;;4905065;29;20046;-69
2023/01/21 14:23:44;;;;;;;5.93;2.30;;;;;;;;;;4920945;29;20137;-69
2023/01/21 14:26:19;;;;;;;5.37;2.60;;;;;;;;;;4921050;29;20042;-69
2023/01/21 14:29:05;;;;;;;4.03;2.60;;;;;;;;;;4905488;29;20105;-69
2023/01/21 14:31:40;;;;;;;6.57;2.50;;;;;;;;;;4905163;29;20050;-70
2023/01/21 14:34:09;;;;;;;8.13;2.53;;;;;;;;;;4921060;29;20054;-69
2023/01/21 14:36:34;;;;;;;5.37;2.80;;;;;;;;;;4905142;29;20109;-69
2023/01/21 14:39:06;;;;;;;4.07;2.20;;;;;;;;;;4904211;29;20035;-69
2023/01/21 14:41:57;;;;;;;4.77;2.70;;;;;;;;;;4919461;29;20474;-69
2023/01/21 14:44:38;;;;;;;7.57;3.07;;;;;;;;;;4926684;29;20054;-70
2023/01/21 14:47:04;;;;;;;;;;;;;;;;;;4919796;29;20051;-69
2023/01/21 14:49:40;;;;;;;5.17;2.40;;;;;;;;;;4920825;29;19997;-69
2023/01/21 14:52:10;;;;;;;5.97;2.93;;;;;;;;;;4920528;28;20129;-70
2023/01/21 14:54:36;;;;;;;5.27;2.13;;;;;;;;;;4920596;29;20039;-69
2023/01/21 14:57:04;;;;;;;5.20;2.20;;;;;;;;;;4920642;29;20433;-70
2023/01/21 14:59:33;;;;;;;5.27;2.10;;;;;;;;;;4927082;28;20066;-69
2023/01/21 15:02:00;;;;;;;4.37;2.40;;;;;;;;;;4939631;28;20038;-70